»·PEaware :: BLADE05 KSPS-KSPS

BLADE05 :: KSPS-KSPS

FLIGHT INFORMATION

Flight Status: Arrived
Operator: Unknown
More flights by this operator :: More flights under this callsign
Pilot: 80 FTW ENJJPT (22981)
Aircraft: BEECH AIRCRAFT T-6A TEXAN
(TEX2)
More flights by this aircraft type
Origin: KSPS Sheppard AFB/Wichita Falls Mu
United States
Destination: KSPS Sheppard AFB/Wichita Falls Mu
United States
More flights between these airports :: More routes between these airports
Route: +
File this flight plan on PilotEdge
Remarks:
Altitude:
(Current/Filed)
0ft
Speed:
(Current/Filed)
0kts
Departed: 25-Aug-20 06:17 AM
Arrived: 25-Aug-20 08:11 AM
Distance/Time
Traveled:
0nm/1:54
Distance/Time
To Go:
Arrived

Flight Plot

Page will automatically refresh every two minutes.

Flight plan parsing failed; only flown route is shown


Map Options




Map Legend


Flown Route
Filed Route
Departure Airport
Arrival Airport
Navaid (VOR, NDB)
Fix

Horizontal Profiles

Position Reports

Time Latitude Longitude Heading Altitude Ground
Speed
25-Aug-20 06:15 34.009889 -98.492539 158 1023ft 45kts
25-Aug-20 06:16 33.984082 -98.481060 159 1424ft 196kts
25-Aug-20 06:17 33.968478 -98.438936 91 3789ft 182kts
25-Aug-20 06:18 33.994932 -98.427528 326 6115ft 193kts
25-Aug-20 06:19 34.035076 -98.455236 331 6023ft 226kts
25-Aug-20 06:20 34.076188 -98.483902 328 6009ft 227kts
25-Aug-20 06:21 34.121020 -98.501372 345 6008ft 222kts
25-Aug-20 06:22 34.163701 -98.522544 328 5945ft 220kts
25-Aug-20 06:23 34.205004 -98.546643 322 5935ft 218kts
25-Aug-20 06:24 34.231410 -98.591012 305 6037ft 214kts
25-Aug-20 06:25 34.257905 -98.636020 305 6010ft 217kts
25-Aug-20 06:26 34.284256 -98.681134 304 5992ft 219kts
25-Aug-20 06:27 34.310566 -98.726993 303 5942ft 220kts
25-Aug-20 06:28 34.340316 -98.769063 319 5920ft 220kts
25-Aug-20 06:29 34.375832 -98.804240 321 5918ft 219kts
25-Aug-20 06:30 34.409287 -98.840447 293 4687ft 222kts
25-Aug-20 06:31 34.428409 -98.891084 293 2558ft 224kts
25-Aug-20 06:32 34.441225 -98.942210 284 2136ft 202kts
25-Aug-20 06:33 34.434527 -98.990670 209 2278ft 192kts
25-Aug-20 06:34 34.393240 -98.989174 179 2181ft 208kts
25-Aug-20 06:35 34.350647 -98.993281 237 2230ft 184kts
25-Aug-20 06:36 34.370769 -99.005023 22 2071ft 131kts
25-Aug-20 06:37 34.363440 -98.989361 179 1310ft 120kts
25-Aug-20 06:38 34.338202 -98.994182 237 2072ft 160kts
25-Aug-20 06:39 34.357918 -99.006670 8 2215ft 125kts
25-Aug-20 06:40 34.372212 -98.991770 136 1574ft 120kts
25-Aug-20 06:41 34.351000 -98.989409 179 1364ft 123kts
25-Aug-20 06:42 34.326892 -98.967560 86 2116ft 212kts
25-Aug-20 06:43 34.364889 -98.948898 359 2214ft 209kts
25-Aug-20 06:44 34.410471 -98.950128 337 2190ft 217kts
25-Aug-20 06:45 34.396437 -98.989682 176 2085ft 214kts
25-Aug-20 06:46 34.359224 -98.989964 181 4175ft 150kts
25-Aug-20 06:47 34.351495 -98.973726 359 2736ft 129kts
25-Aug-20 06:48 34.366870 -98.986715 225 1398ft 127kts
25-Aug-20 06:49 34.339562 -98.993917 238 2574ft 155kts
25-Aug-20 06:50 34.364780 -99.005530 0 4257ft 184kts
25-Aug-20 06:51 34.358763 -98.986879 176 4051ft 139kts
25-Aug-20 06:52 34.354555 -99.006406 352 2610ft 124kts
25-Aug-20 06:53 34.363916 -98.990450 149 1360ft 121kts
25-Aug-20 06:54 34.339370 -98.994616 239 2053ft 166kts
25-Aug-20 06:55 34.359591 -99.008326 359 2154ft 135kts
25-Aug-20 06:56 34.370009 -98.990122 156 1400ft 124kts
25-Aug-20 06:57 34.346548 -98.989594 181 1529ft 151kts
25-Aug-20 06:58 34.356407 -99.005569 2 2188ft 151kts
25-Aug-20 06:59 34.372257 -98.990191 149 1541ft 127kts
25-Aug-20 07:00 34.347789 -98.989579 179 1501ft 152kts
25-Aug-20 07:01 34.328672 -98.958838 102 3353ft 180kts
25-Aug-20 07:02 34.320932 -98.920671 104 5544ft 183kts
25-Aug-20 07:03 34.333738 -98.877856 65 7546ft 216kts
25-Aug-20 07:05 34.369925 -98.873322 327 7646ft 236kts
25-Aug-20 07:06 34.410018 -98.904196 323 7602ft 225kts
25-Aug-20 07:07 34.443491 -98.935152 322 10839ft 188kts
25-Aug-20 07:08 34.479980 -98.967219 338 11407ft 268kts
25-Aug-20 07:09 34.474991 -98.935334 252 9988ft 252kts
25-Aug-20 07:10 34.428888 -98.940361 133 11411ft 180kts
25-Aug-20 07:11 34.449223 -98.911382 137 9895ft 243kts
25-Aug-20 07:12 34.408913 -98.905422 151 12631ft 102kts
25-Aug-20 07:13 34.383208 -98.890264 356 13558ft 123kts
25-Aug-20 07:14 34.417073 -98.910942 269 10421ft 273kts
25-Aug-20 07:15 34.421257 -98.940310 358 11384ft 229kts
25-Aug-20 07:16 34.469236 -98.940895 322 12772ft 173kts
25-Aug-20 07:17 34.497217 -98.952354 89 12353ft 239kts
25-Aug-20 07:18 34.462512 -98.910771 156 11643ft 282kts
25-Aug-20 07:19 34.478682 -98.889334 5 13915ft 208kts
25-Aug-20 07:20 34.509621 -98.926189 228 11874ft 288kts
25-Aug-20 07:20 34.483382 -98.901802 102 13994ft 241kts
25-Aug-20 07:22 34.493913 -98.863456 312 14062ft 155kts
25-Aug-20 07:23 34.472241 -98.874773 107 9397ft 265kts
25-Aug-20 07:23 34.498622 -98.851549 322 8452ft 188kts
25-Aug-20 07:24 34.504139 -98.894990 270 8947ft 185kts
25-Aug-20 07:26 34.484772 -98.885285 92 8040ft 207kts
25-Aug-20 07:26 34.482436 -98.839957 94 8028ft 221kts
25-Aug-20 07:27 34.478117 -98.781420 96 8028ft 227kts
25-Aug-20 07:28 34.470197 -98.720784 101 7861ft 227kts
25-Aug-20 07:29 34.466303 -98.662877 94 6823ft 231kts
25-Aug-20 07:30 34.462398 -98.604588 99 5849ft 224kts
25-Aug-20 07:31 34.445181 -98.553349 113 4116ft 213kts
25-Aug-20 07:32 34.429451 -98.508195 112 2999ft 145kts
25-Aug-20 07:33 34.432164 -98.470462 59 3075ft 176kts
25-Aug-20 07:34 34.458831 -98.438166 43 2647ft 178kts
25-Aug-20 07:35 34.482033 -98.410409 43 2678ft 152kts
25-Aug-20 07:36 34.509228 -98.387381 343 2741ft 176kts
25-Aug-20 07:37 34.545460 -98.409483 331 2704ft 198kts
25-Aug-20 07:38 34.580777 -98.435830 294 2850ft 202kts
25-Aug-20 07:39 34.564422 -98.481587 232 2987ft 214kts
25-Aug-20 07:40 34.537978 -98.525991 234 3094ft 217kts
25-Aug-20 07:41 34.509867 -98.569166 202 2963ft 215kts
25-Aug-20 07:42 34.464721 -98.566920 174 3035ft 217kts
25-Aug-20 07:43 34.418984 -98.560815 162 3023ft 220kts
25-Aug-20 07:44 34.407401 -98.517054 84 3019ft 174kts
25-Aug-20 07:45 34.410808 -98.475658 83 3033ft 163kts
25-Aug-20 07:46 34.414254 -98.434444 84 3024ft 159kts
25-Aug-20 07:47 34.435023 -98.410455 10 2513ft 130kts
25-Aug-20 07:48 34.461119 -98.410110 356 2451ft 126kts
25-Aug-20 07:49 34.487032 -98.412466 354 2411ft 119kts
25-Aug-20 07:50 34.512278 -98.414393 356 2003ft 117kts
25-Aug-20 07:51 34.537167 -98.415509 359 1517ft 122kts
25-Aug-20 07:52 34.562304 -98.416841 356 1956ft 136kts
25-Aug-20 07:53 34.584681 -98.440498 251 3002ft 210kts
25-Aug-20 07:54 34.555568 -98.477078 185 3986ft 208kts
25-Aug-20 07:55 34.511236 -98.481347 183 4026ft 217kts
25-Aug-20 07:56 34.465394 -98.486228 186 3951ft 219kts
25-Aug-20 07:57 34.418508 -98.491921 185 4000ft 216kts
25-Aug-20 07:58 34.373280 -98.496899 185 3954ft 218kts
25-Aug-20 07:59 34.325749 -98.490702 169 2848ft 224kts
25-Aug-20 08:00 34.278994 -98.485490 184 2748ft 220kts
25-Aug-20 08:01 34.232916 -98.492055 192 2742ft 218kts
25-Aug-20 08:02 34.188653 -98.504470 192 2460ft 214kts
25-Aug-20 08:03 34.145144 -98.513647 188 2016ft 208kts
25-Aug-20 08:04 34.101453 -98.521244 190 2043ft 215kts
25-Aug-20 08:05 34.057788 -98.515533 157 2024ft 216kts
25-Aug-20 08:06 34.015523 -98.495423 158 2045ft 217kts
25-Aug-20 08:07 34.015341 -98.479817 340 1943ft 119kts
25-Aug-20 08:08 34.018502 -98.496998 163 1171ft 126kts
25-Aug-20 08:09 34.001658 -98.488768 158 1023ft 55kts
25-Aug-20 08:10 33.995654 -98.486792 244 1023ft 0kts

Navigation Log

Ident Type
Flight plan parsing failed, navigation log unavailable